sensor_id;sensor_type;location;lat;lon;timestamp;P1;P2;P0
46591;PMS6003;32314;48.748;9.656;2023-07-31T00:05:54;0.00;0.00;0.00
46591;PMS6003;32314;48.748;9.656;2023-07-31T00:08:50;0.00;0.00;0.00
46591;PMS6003;32314;48.748;9.656;2023-07-31T00:11:56;0.25;0.25;0.00
46591;PMS6003;32314;48.748;9.656;2023-07-31T00:15:10;0.50;0.50;0.25
46591;PMS6003;32314;48.748;9.656;2023-07-31T00:18:08;0.00;0.00;0.00
46591;PMS6003;32314;48.748;9.656;2023-07-31T00:21:16;3.00;0.50;0.50
46591;PMS6003;32314;48.748;9.656;2023-07-31T00:24:14;1.50;0.50;0.50
46591;PMS6003;32314;48.748;9.656;2023-07-31T00:27:54;0.00;0.00;0.00
46591;PMS6003;32314;48.748;9.656;2023-07-31T00:31:13;0.00;0.00;0.00
46591;PMS6003;32314;48.748;9.656;2023-07-31T00:34:07;0.00;0.00;0.00
46591;PMS6003;32314;48.748;9.656;2023-07-31T00:37:03;0.25;0.25;0.00
46591;PMS6003;32314;48.748;9.656;2023-07-31T00:39:55;2.50;1.00;1.00
46591;PMS6003;32314;48.748;9.656;2023-07-31T00:46:07;0.00;0.00;0.00
46591;PMS6003;32314;48.748;9.656;2023-07-31T00:49:00;2.25;1.00;1.00
46591;PMS6003;32314;48.748;9.656;2023-07-31T00:52:04;1.00;1.00;1.00
46591;PMS6003;32314;48.748;9.656;2023-07-31T00:55:19;0.75;0.75;0.50
46591;PMS6003;32314;48.748;9.656;2023-07-31T00:58:26;3.25;1.00;1.00
46591;PMS6003;32314;48.748;9.656;2023-07-31T01:01:25;0.25;0.25;0.00
46591;PMS6003;32314;48.748;9.656;2023-07-31T01:04:13;3.00;1.00;1.00
46591;PMS6003;32314;48.748;9.656;2023-07-31T01:11:32;3.00;0.75;0.75
46591;PMS6003;32314;48.748;9.656;2023-07-31T01:14:48;1.00;1.00;1.00
46591;PMS6003;32314;48.748;9.656;2023-07-31T01:18:13;3.00;0.00;0.00
46591;PMS6003;32314;48.748;9.656;2023-07-31T01:28:05;0.50;0.50;0.50
46591;PMS6003;32314;48.748;9.656;2023-07-31T01:34:29;3.50;1.00;1.00
46591;PMS6003;32314;48.748;9.656;2023-07-31T01:37:21;0.00;0.00;0.00
46591;PMS6003;32314;48.748;9.656;2023-07-31T01:40:22;2.25;0.00;0.00
46591;PMS6003;32314;48.748;9.656;2023-07-31T01:43:25;0.00;0.00;0.00
46591;PMS6003;32314;48.748;9.656;2023-07-31T01:46:24;0.00;0.00;0.00
46591;PMS6003;32314;48.748;9.656;2023-07-31T01:49:29;2.00;0.25;0.00
46591;PMS6003;32314;48.748;9.656;2023-07-31T01:52:21;0.25;0.25;0.25
46591;PMS6003;32314;48.748;9.656;2023-07-31T01:55:38;1.00;1.00;1.00
46591;PMS6003;32314;48.748;9.656;2023-07-31T02:01:46;4.25;1.00;0.75
46591;PMS6003;32314;48.748;9.656;2023-07-31T02:04:46;3.00;0.75;0.75
46591;PMS6003;32314;48.748;9.656;2023-07-31T02:07:47;0.75;0.75;0.75
46591;PMS6003;32314;48.748;9.656;2023-07-31T02:10:48;0.00;0.00;0.00
46591;PMS6003;32314;48.748;9.656;2023-07-31T02:13:46;1.00;1.00;1.00
46591;PMS6003;32314;48.748;9.656;2023-07-31T02:16:45;0.50;0.50;0.50
46591;PMS6003;32314;48.748;9.656;2023-07-31T02:19:39;0.50;0.50;0.50
46591;PMS6003;32314;48.748;9.656;2023-07-31T02:22:37;0.00;0.00;0.00
46591;PMS6003;32314;48.748;9.656;2023-07-31T02:25:29;4.00;3.00;1.00
46591;PMS6003;32314;48.748;9.656;2023-07-31T02:31:23;1.00;1.00;1.00
46591;PMS6003;32314;48.748;9.656;2023-07-31T02:34:33;1.00;1.00;1.00
46591;PMS6003;32314;48.748;9.656;2023-07-31T02:37:52;1.00;1.00;1.00
46591;PMS6003;32314;48.748;9.656;2023-07-31T02:41:10;0.00;0.00;0.00
46591;PMS6003;32314;48.748;9.656;2023-07-31T02:43:56;1.00;1.00;0.00
46591;PMS6003;32314;48.748;9.656;2023-07-31T02:46:45;2.50;1.00;0.00
46591;PMS6003;32314;48.748;9.656;2023-07-31T02:49:56;0.00;0.00;0.00
46591;PMS6003;32314;48.748;9.656;2023-07-31T02:52:51;0.00;0.00;0.00
46591;PMS6003;32314;48.748;9.656;2023-07-31T02:56:14;1.00;1.00;1.00
46591;PMS6003;32314;48.748;9.656;2023-07-31T02:59:24;2.00;2.00;1.00
46591;PMS6003;32314;48.748;9.656;2023-07-31T03:02:24;0.00;0.00;0.00
46591;PMS6003;32314;48.748;9.656;2023-07-31T03:09:07;3.25;1.00;1.00
46591;PMS6003;32314;48.748;9.656;2023-07-31T03:12:43;1.00;1.00;1.00
46591;PMS6003;32314;48.748;9.656;2023-07-31T03:15:44;0.00;0.00;0.00
46591;PMS6003;32314;48.748;9.656;2023-07-31T03:18:39;1.50;0.25;0.00
46591;PMS6003;32314;48.748;9.656;2023-07-31T03:25:41;1.00;1.00;1.00
46591;PMS6003;32314;48.748;9.656;2023-07-31T03:29:31;0.75;0.75;0.75
46591;PMS6003;32314;48.748;9.656;2023-07-31T03:32:25;1.00;1.00;1.00
46591;PMS6003;32314;48.748;9.656;2023-07-31T03:35:25;1.50;1.00;1.00
46591;PMS6003;32314;48.748;9.656;2023-07-31T03:38:20;1.00;1.00;1.00
46591;PMS6003;32314;48.748;9.656;2023-07-31T03:41:13;1.00;1.00;1.00
46591;PMS6003;32314;48.748;9.656;2023-07-31T03:44:16;3.00;3.00;1.00
46591;PMS6003;32314;48.748;9.656;2023-07-31T03:47:26;5.00;3.00;1.50
46591;PMS6003;32314;48.748;9.656;2023-07-31T03:50:33;1.00;1.00;1.00
46591;PMS6003;32314;48.748;9.656;2023-07-31T03:56:35;0.25;0.25;0.00
46591;PMS6003;32314;48.748;9.656;2023-07-31T03:59:42;0.00;0.00;0.00
46591;PMS6003;32314;48.748;9.656;2023-07-31T04:03:06;1.00;1.00;0.00
46591;PMS6003;32314;48.748;9.656;2023-07-31T04:06:03;0.00;0.00;0.00
46591;PMS6003;32314;48.748;9.656;2023-07-31T04:09:08;1.00;1.00;1.00
46591;PMS6003;32314;48.748;9.656;2023-07-31T04:12:09;0.00;0.00;0.00
46591;PMS6003;32314;48.748;9.656;2023-07-31T04:15:12;1.50;1.50;1.00
46591;PMS6003;32314;48.748;9.656;2023-07-31T04:18:26;1.00;1.00;1.00
46591;PMS6003;32314;48.748;9.656;2023-07-31T04:21:27;1.00;0.00;0.00
46591;PMS6003;32314;48.748;9.656;2023-07-31T04:24:28;7.50;2.50;1.00
46591;PMS6003;32314;48.748;9.656;2023-07-31T04:27:40;2.00;2.00;1.00
46591;PMS6003;32314;48.748;9.656;2023-07-31T04:30:44;3.00;1.00;1.00
46591;PMS6003;32314;48.748;9.656;2023-07-31T04:33:34;3.00;3.00;3.00
46591;PMS6003;32314;48.748;9.656;2023-07-31T04:36:31;0.75;0.75;0.75
46591;PMS6003;32314;48.748;9.656;2023-07-31T04:39:27;0.75;0.75;0.50
46591;PMS6003;32314;48.748;9.656;2023-07-31T04:42:39;0.00;0.00;0.00
46591;PMS6003;32314;48.748;9.656;2023-07-31T04:45:45;3.00;3.00;1.00
46591;PMS6003;32314;48.748;9.656;2023-07-31T04:48:44;1.00;1.00;1.00
46591;PMS6003;32314;48.748;9.656;2023-07-31T04:51:41;2.50;2.50;1.00
46591;PMS6003;32314;48.748;9.656;2023-07-31T04:54:44;0.00;0.00;0.00
46591;PMS6003;32314;48.748;9.656;2023-07-31T04:57:51;1.00;1.00;0.75
46591;PMS6003;32314;48.748;9.656;2023-07-31T05:00:42;2.00;1.50;1.00
46591;PMS6003;32314;48.748;9.656;2023-07-31T05:03:47;1.75;1.00;1.00
46591;PMS6003;32314;48.748;9.656;2023-07-31T05:06:36;3.25;3.25;1.00
46591;PMS6003;32314;48.748;9.656;2023-07-31T05:09:41;1.00;1.00;1.00
46591;PMS6003;32314;48.748;9.656;2023-07-31T05:12:44;5.00;1.00;1.00
46591;PMS6003;32314;48.748;9.656;2023-07-31T05:15:40;3.00;1.00;1.00
46591;PMS6003;32314;48.748;9.656;2023-07-31T05:18:52;1.00;1.00;1.00
46591;PMS6003;32314;48.748;9.656;2023-07-31T05:21:50;1.00;1.00;1.00
46591;PMS6003;32314;48.748;9.656;2023-07-31T05:24:47;1.00;1.00;1.00
46591;PMS6003;32314;48.748;9.656;2023-07-31T05:27:42;1.00;1.00;0.25
46591;PMS6003;32314;48.748;9.656;2023-07-31T05:30:58;5.50;3.00;2.00
46591;PMS6003;32314;48.748;9.656;2023-07-31T05:34:12;0.25;0.25;0.00
46591;PMS6003;32314;48.748;9.656;2023-07-31T05:37:06;0.75;0.75;0.50
46591;PMS6003;32314;48.748;9.656;2023-07-31T05:40:13;1.00;1.00;1.00
46591;PMS6003;32314;48.748;9.656;2023-07-31T05:43:09;4.00;4.00;2.75
46591;PMS6003;32314;48.748;9.656;2023-07-31T05:46:06;3.00;3.00;3.00
46591;PMS6003;32314;48.748;9.656;2023-07-31T05:49:22;0.75;0.75;0.75
46591;PMS6003;32314;48.748;9.656;2023-07-31T05:52:31;3.75;2.50;0.50
46591;PMS6003;32314;48.748;9.656;2023-07-31T05:55:24;1.00;1.00;1.00
46591;PMS6003;32314;48.748;9.656;2023-07-31T05:58:28;4.00;1.00;1.00
46591;PMS6003;32314;48.748;9.656;2023-07-31T06:01:41;1.00;1.00;1.00
46591;PMS6003;32314;48.748;9.656;2023-07-31T06:04:42;3.00;3.00;1.50
46591;PMS6003;32314;48.748;9.656;2023-07-31T06:07:40;1.00;1.00;1.00
46591;PMS6003;32314;48.748;9.656;2023-07-31T06:10:33;1.00;1.00;1.00
46591;PMS6003;32314;48.748;9.656;2023-07-31T06:13:25;3.00;3.00;3.00
46591;PMS6003;32314;48.748;9.656;2023-07-31T06:16:17;8.50;1.00;1.00
46591;PMS6003;32314;48.748;9.656;2023-07-31T06:19:10;1.00;1.00;1.00
46591;PMS6003;32314;48.748;9.656;2023-07-31T06:22:02;3.00;0.75;0.75
46591;PMS6003;32314;48.748;9.656;2023-07-31T06:25:00;1.00;1.00;1.00
46591;PMS6003;32314;48.748;9.656;2023-07-31T06:31:11;1.00;1.00;1.00
46591;PMS6003;32314;48.748;9.656;2023-07-31T06:34:04;4.50;3.00;3.00
46591;PMS6003;32314;48.748;9.656;2023-07-31T06:36:56;1.00;1.00;0.75
46591;PMS6003;32314;48.748;9.656;2023-07-31T06:39:50;0.75;0.75;0.00
46591;PMS6003;32314;48.748;9.656;2023-07-31T06:43:07;1.50;1.50;1.00
46591;PMS6003;32314;48.748;9.656;2023-07-31T06:45:53;3.75;1.50;1.00
46591;PMS6003;32314;48.748;9.656;2023-07-31T06:48:39;1.50;1.50;1.25
46591;PMS6003;32314;48.748;9.656;2023-07-31T06:51:25;4.50;1.00;0.25
46591;PMS6003;32314;48.748;9.656;2023-07-31T06:54:11;1.50;1.50;1.00
46591;PMS6003;32314;48.748;9.656;2023-07-31T06:56:56;1.00;1.00;1.00
46591;PMS6003;32314;48.748;9.656;2023-07-31T06:59:42;5.00;5.00;4.00
46591;PMS6003;32314;48.748;9.656;2023-07-31T07:02:28;6.00;4.25;3.25
46591;PMS6003;32314;48.748;9.656;2023-07-31T07:05:14;5.50;3.75;3.75
46591;PMS6003;32314;48.748;9.656;2023-07-31T07:08:02;3.50;3.50;3.00
46591;PMS6003;32314;48.748;9.656;2023-07-31T07:10:47;4.50;3.00;3.00
46591;PMS6003;32314;48.748;9.656;2023-07-31T07:13:37;5.75;3.75;3.00
46591;PMS6003;32314;48.748;9.656;2023-07-31T07:16:38;4.00;4.00;4.00
46591;PMS6003;32314;48.748;9.656;2023-07-31T07:19:34;3.50;3.50;3.50
46591;PMS6003;32314;48.748;9.656;2023-07-31T07:22:20;4.75;4.75;3.25
46591;PMS6003;32314;48.748;9.656;2023-07-31T07:25:06;4.00;4.00;3.00
46591;PMS6003;32314;48.748;9.656;2023-07-31T07:27:53;6.50;4.00;3.50
46591;PMS6003;32314;48.748;9.656;2023-07-31T07:30:38;4.00;4.00;3.75
46591;PMS6003;32314;48.748;9.656;2023-07-31T07:33:24;5.00;5.00;4.00
46591;PMS6003;32314;48.748;9.656;2023-07-31T07:36:10;3.75;3.75;3.25
46591;PMS6003;32314;48.748;9.656;2023-07-31T07:38:58;4.75;4.50;4.00
46591;PMS6003;32314;48.748;9.656;2023-07-31T07:41:44;3.25;3.25;3.00
46591;PMS6003;32314;48.748;9.656;2023-07-31T07:44:29;4.00;4.00;3.50
46591;PMS6003;32314;48.748;9.656;2023-07-31T07:47:15;4.00;4.00;3.00
46591;PMS6003;32314;48.748;9.656;2023-07-31T07:50:01;5.00;3.25;3.00
46591;PMS6003;32314;48.748;9.656;2023-07-31T07:52:47;2.75;2.75;2.25
46591;PMS6003;32314;48.748;9.656;2023-07-31T07:55:33;2.75;1.50;1.50
46591;PMS6003;32314;48.748;9.656;2023-07-31T07:58:20;1.50;1.50;0.50
46591;PMS6003;32314;48.748;9.656;2023-07-31T08:01:06;2.50;2.50;2.00
46591;PMS6003;32314;48.748;9.656;2023-07-31T08:03:52;2.75;1.25;1.25
46591;PMS6003;32314;48.748;9.656;2023-07-31T08:06:38;1.75;1.75;1.75
46591;PMS6003;32314;48.748;9.656;2023-07-31T08:09:25;3.00;3.00;2.00
46591;PMS6003;32314;48.748;9.656;2023-07-31T08:12:17;3.75;3.75;3.00
46591;PMS6003;32314;48.748;9.656;2023-07-31T08:15:03;3.00;1.50;1.50
46591;PMS6003;32314;48.748;9.656;2023-07-31T08:17:49;2.50;2.50;2.00
46591;PMS6003;32314;48.748;9.656;2023-07-31T08:20:35;4.00;3.50;3.25
46591;PMS6003;32314;48.748;9.656;2023-07-31T08:23:20;3.50;3.00;2.75
46591;PMS6003;32314;48.748;9.656;2023-07-31T08:26:06;1.75;1.75;1.75
46591;PMS6003;32314;48.748;9.656;2023-07-31T08:28:52;3.00;3.00;2.00
46591;PMS6003;32314;48.748;9.656;2023-07-31T08:31:38;2.00;2.00;2.00
46591;PMS6003;32314;48.748;9.656;2023-07-31T08:34:24;2.75;2.75;2.75
46591;PMS6003;32314;48.748;9.656;2023-07-31T08:37:10;2.50;2.50;2.50
46591;PMS6003;32314;48.748;9.656;2023-07-31T08:39:56;1.50;1.50;1.50
46591;PMS6003;32314;48.748;9.656;2023-07-31T08:42:44;1.50;1.50;1.50
46591;PMS6003;32314;48.748;9.656;2023-07-31T08:45:31;2.00;2.00;1.75
46591;PMS6003;32314;48.748;9.656;2023-07-31T08:48:18;2.00;2.00;1.00
46591;PMS6003;32314;48.748;9.656;2023-07-31T08:51:04;3.00;3.00;3.00
46591;PMS6003;32314;48.748;9.656;2023-07-31T08:53:50;4.67;4.67;4.00
46591;PMS6003;32314;48.748;9.656;2023-07-31T08:56:38;6.33;2.33;2.00
46591;PMS6003;32314;48.748;9.656;2023-07-31T08:59:25;3.00;3.00;3.00
46591;PMS6003;32314;48.748;9.656;2023-07-31T09:02:16;4.00;3.50;3.00
46591;PMS6003;32314;48.748;9.656;2023-07-31T09:05:03;2.00;2.00;2.00
46591;PMS6003;32314;48.748;9.656;2023-07-31T09:07:51;3.33;3.00;3.00
46591;PMS6003;32314;48.748;9.656;2023-07-31T09:10:40;3.00;3.00;2.67
46591;PMS6003;32314;48.748;9.656;2023-07-31T09:13:31;2.00;2.00;1.67
46591;PMS6003;32314;48.748;9.656;2023-07-31T09:16:18;3.33;1.00;1.00
46591;PMS6003;32314;48.748;9.656;2023-07-31T09:19:03;3.33;2.67;2.00
46591;PMS6003;32314;48.748;9.656;2023-07-31T09:21:50;2.00;2.00;2.00
46591;PMS6003;32314;48.748;9.656;2023-07-31T09:24:36;2.33;2.00;2.00
46591;PMS6003;32314;48.748;9.656;2023-07-31T09:27:22;2.00;2.00;2.00
46591;PMS6003;32314;48.748;9.656;2023-07-31T09:30:08;2.00;2.00;2.00
46591;PMS6003;32314;48.748;9.656;2023-07-31T09:33:04;1.00;1.00;1.00
46591;PMS6003;32314;48.748;9.656;2023-07-31T09:35:54;3.00;2.00;1.00
46591;PMS6003;32314;48.748;9.656;2023-07-31T09:38:40;3.00;3.00;3.00
46591;PMS6003;32314;48.748;9.656;2023-07-31T09:41:26;2.33;2.33;1.67
46591;PMS6003;32314;48.748;9.656;2023-07-31T09:44:12;1.33;1.33;1.00
46591;PMS6003;32314;48.748;9.656;2023-07-31T09:46:58;4.33;2.67;2.33
46591;PMS6003;32314;48.748;9.656;2023-07-31T09:49:45;2.00;2.00;2.00
46591;PMS6003;32314;48.748;9.656;2023-07-31T09:52:31;2.00;2.00;2.00
46591;PMS6003;32314;48.748;9.656;2023-07-31T09:55:17;4.00;2.50;2.50
46591;PMS6003;32314;48.748;9.656;2023-07-31T09:58:04;1.33;1.33;1.33
46591;PMS6003;32314;48.748;9.656;2023-07-31T10:00:57;2.00;1.25;1.00
46591;PMS6003;32314;48.748;9.656;2023-07-31T10:03:44;3.00;3.00;2.00
46591;PMS6003;32314;48.748;9.656;2023-07-31T10:06:32;2.25;2.25;2.25
46591;PMS6003;32314;48.748;9.656;2023-07-31T10:09:18;3.00;1.75;1.50
46591;PMS6003;32314;48.748;9.656;2023-07-31T10:12:07;1.33;1.33;1.00
46591;PMS6003;32314;48.748;9.656;2023-07-31T10:14:55;4.00;2.00;2.00
46591;PMS6003;32314;48.748;9.656;2023-07-31T10:17:41;0.33;0.33;0.33
46591;PMS6003;32314;48.748;9.656;2023-07-31T10:20:28;2.00;2.00;1.00
46591;PMS6003;32314;48.748;9.656;2023-07-31T10:23:14;2.00;2.00;1.67
46591;PMS6003;32314;48.748;9.656;2023-07-31T10:26:01;2.00;2.00;1.67
46591;PMS6003;32314;48.748;9.656;2023-07-31T10:28:48;1.00;1.00;1.00
46591;PMS6003;32314;48.748;9.656;2023-07-31T10:31:34;2.00;2.00;2.00
46591;PMS6003;32314;48.748;9.656;2023-07-31T10:34:20;1.67;1.67;1.33
46591;PMS6003;32314;48.748;9.656;2023-07-31T10:40:13;2.33;2.33;2.33
46591;PMS6003;32314;48.748;9.656;2023-07-31T10:43:01;2.50;2.50;2.50
46591;PMS6003;32314;48.748;9.656;2023-07-31T10:45:47;1.75;1.75;1.50
46591;PMS6003;32314;48.748;9.656;2023-07-31T10:48:34;3.25;2.25;1.50
46591;PMS6003;32314;48.748;9.656;2023-07-31T10:51:21;1.50;1.50;0.75
46591;PMS6003;32314;48.748;9.656;2023-07-31T10:54:15;1.25;1.25;1.25
46591;PMS6003;32314;48.748;9.656;2023-07-31T10:57:03;10.00;5.00;3.67
46591;PMS6003;32314;48.748;9.656;2023-07-31T11:00:24;3.33;3.33;2.33
46591;PMS6003;32314;48.748;9.656;2023-07-31T11:03:15;4.25;2.50;2.00
46591;PMS6003;32314;48.748;9.656;2023-07-31T11:06:06;2.50;2.50;1.75
46591;PMS6003;32314;48.748;9.656;2023-07-31T11:08:52;4.25;2.75;2.00
46591;PMS6003;32314;48.748;9.656;2023-07-31T11:11:38;1.25;1.25;0.75
46591;PMS6003;32314;48.748;9.656;2023-07-31T11:14:24;2.75;2.75;2.00
46591;PMS6003;32314;48.748;9.656;2023-07-31T11:17:10;2.75;2.75;2.75
46591;PMS6003;32314;48.748;9.656;2023-07-31T11:19:56;4.50;2.75;2.00
46591;PMS6003;32314;48.748;9.656;2023-07-31T11:22:42;1.25;1.25;0.75
46591;PMS6003;32314;48.748;9.656;2023-07-31T11:25:29;11.33;5.67;3.67
46591;PMS6003;32314;48.748;9.656;2023-07-31T11:28:17;1.75;1.75;1.75
46591;PMS6003;32314;48.748;9.656;2023-07-31T11:31:04;3.75;2.75;1.75
46591;PMS6003;32314;48.748;9.656;2023-07-31T11:33:50;3.00;2.75;2.75
46591;PMS6003;32314;48.748;9.656;2023-07-31T11:36:36;2.25;2.25;1.75
46591;PMS6003;32314;48.748;9.656;2023-07-31T11:39:22;6.50;3.50;2.25
46591;PMS6003;32314;48.748;9.656;2023-07-31T11:42:07;1.75;1.75;1.75
46591;PMS6003;32314;48.748;9.656;2023-07-31T11:44:53;1.25;1.25;1.25
46591;PMS6003;32314;48.748;9.656;2023-07-31T11:47:39;2.50;2.00;2.00
46591;PMS6003;32314;48.748;9.656;2023-07-31T11:50:25;3.25;3.25;2.25
46591;PMS6003;32314;48.748;9.656;2023-07-31T11:53:11;6.75;3.25;2.75
46591;PMS6003;32314;48.748;9.656;2023-07-31T11:55:59;5.00;4.75;3.00
46591;PMS6003;32314;48.748;9.656;2023-07-31T11:58:47;4.75;3.50;2.75
46591;PMS6003;32314;48.748;9.656;2023-07-31T12:01:34;8.75;5.50;4.25
46591;PMS6003;32314;48.748;9.656;2023-07-31T12:04:20;3.00;3.00;2.00
46591;PMS6003;32314;48.748;9.656;2023-07-31T12:07:07;9.67;9.00;4.00
46591;PMS6003;32314;48.748;9.656;2023-07-31T12:09:53;3.25;1.75;1.50
46591;PMS6003;32314;48.748;9.656;2023-07-31T12:12:40;2.50;2.00;1.50
46591;PMS6003;32314;48.748;9.656;2023-07-31T12:15:32;4.00;2.25;2.00
46591;PMS6003;32314;48.748;9.656;2023-07-31T12:18:29;1.75;1.75;1.75
46591;PMS6003;32314;48.748;9.656;2023-07-31T12:21:16;8.00;2.67;2.00
46591;PMS6003;32314;48.748;9.656;2023-07-31T12:24:02;2.67;2.00;1.67
46591;PMS6003;32314;48.748;9.656;2023-07-31T12:26:49;4.00;2.00;2.00
46591;PMS6003;32314;48.748;9.656;2023-07-31T12:29:35;2.50;2.50;1.75
46591;PMS6003;32314;48.748;9.656;2023-07-31T12:32:23;3.75;2.75;2.25
46591;PMS6003;32314;48.748;9.656;2023-07-31T12:35:15;4.50;2.00;1.25
46591;PMS6003;32314;48.748;9.656;2023-07-31T12:38:01;2.33;2.33;2.00
46591;PMS6003;32314;48.748;9.656;2023-07-31T12:40:47;3.67;3.00;2.33
46591;PMS6003;32314;48.748;9.656;2023-07-31T12:43:37;1.75;1.75;1.75
46591;PMS6003;32314;48.748;9.656;2023-07-31T12:46:24;5.00;4.00;3.00
46591;PMS6003;32314;48.748;9.656;2023-07-31T12:49:10;4.00;1.33;1.33
46591;PMS6003;32314;48.748;9.656;2023-07-31T12:51:55;5.67;4.00;3.00
46591;PMS6003;32314;48.748;9.656;2023-07-31T12:54:41;2.00;2.00;2.00
46591;PMS6003;32314;48.748;9.656;2023-07-31T12:57:27;2.67;2.67;1.67
46591;PMS6003;32314;48.748;9.656;2023-07-31T13:00:13;4.00;4.00;3.00
46591;PMS6003;32314;48.748;9.656;2023-07-31T13:02:59;3.00;3.00;2.00
46591;PMS6003;32314;48.748;9.656;2023-07-31T13:05:46;3.67;3.67;3.00
46591;PMS6003;32314;48.748;9.656;2023-07-31T13:08:32;4.00;4.00;3.33
46591;PMS6003;32314;48.748;9.656;2023-07-31T13:11:18;3.00;3.00;2.33
46591;PMS6003;32314;48.748;9.656;2023-07-31T13:14:03;4.00;3.67;3.00
46591;PMS6003;32314;48.748;9.656;2023-07-31T13:16:49;6.67;4.33;3.33
46591;PMS6003;32314;48.748;9.656;2023-07-31T13:19:35;2.00;2.00;2.00
46591;PMS6003;32314;48.748;9.656;2023-07-31T13:22:21;1.33;1.33;1.00
46591;PMS6003;32314;48.748;9.656;2023-07-31T13:25:07;5.67;3.00;2.67
46591;PMS6003;32314;48.748;9.656;2023-07-31T13:27:53;2.00;2.00;2.00
46591;PMS6003;32314;48.748;9.656;2023-07-31T13:30:39;3.00;3.00;2.00
46591;PMS6003;32314;48.748;9.656;2023-07-31T13:33:24;3.00;3.00;2.00
46591;PMS6003;32314;48.748;9.656;2023-07-31T13:36:10;3.33;3.33;2.00
46591;PMS6003;32314;48.748;9.656;2023-07-31T13:38:59;4.00;4.00;3.00
46591;PMS6003;32314;48.748;9.656;2023-07-31T13:41:45;5.00;3.33;3.00
46591;PMS6003;32314;48.748;9.656;2023-07-31T13:44:31;3.33;3.33;2.67
46591;PMS6003;32314;48.748;9.656;2023-07-31T13:47:17;5.25;4.00;3.75
46591;PMS6003;32314;48.748;9.656;2023-07-31T13:50:03;3.33;3.33;3.00
46591;PMS6003;32314;48.748;9.656;2023-07-31T13:52:49;4.50;4.50;3.50
46591;PMS6003;32314;48.748;9.656;2023-07-31T13:55:35;4.00;4.00;3.00
46591;PMS6003;32314;48.748;9.656;2023-07-31T13:58:21;3.33;3.33;3.33
46591;PMS6003;32314;48.748;9.656;2023-07-31T14:01:07;3.00;3.00;2.33
46591;PMS6003;32314;48.748;9.656;2023-07-31T14:03:53;4.00;4.00;4.00
46591;PMS6003;32314;48.748;9.656;2023-07-31T14:06:39;4.00;3.67;3.00
46591;PMS6003;32314;48.748;9.656;2023-07-31T14:09:25;3.67;3.67;2.67
46591;PMS6003;32314;48.748;9.656;2023-07-31T14:12:11;4.00;3.00;3.00
46591;PMS6003;32314;48.748;9.656;2023-07-31T14:14:57;4.00;4.00;3.00
46591;PMS6003;32314;48.748;9.656;2023-07-31T14:17:42;3.33;3.33;3.00
46591;PMS6003;32314;48.748;9.656;2023-07-31T14:20:29;3.00;3.00;3.00
46591;PMS6003;32314;48.748;9.656;2023-07-31T14:23:15;4.00;2.33;2.00
46591;PMS6003;32314;48.748;9.656;2023-07-31T14:26:01;4.00;4.00;3.00
46591;PMS6003;32314;48.748;9.656;2023-07-31T14:28:47;5.00;3.00;3.00
46591;PMS6003;32314;48.748;9.656;2023-07-31T14:31:35;4.00;3.67;3.00
46591;PMS6003;32314;48.748;9.656;2023-07-31T14:34:21;4.00;4.00;3.00
46591;PMS6003;32314;48.748;9.656;2023-07-31T14:37:07;2.00;2.00;2.00
46591;PMS6003;32314;48.748;9.656;2023-07-31T14:39:52;6.25;3.50;3.25
46591;PMS6003;32314;48.748;9.656;2023-07-31T14:42:38;5.25;4.00;3.00
46591;PMS6003;32314;48.748;9.656;2023-07-31T14:45:24;2.25;2.00;2.00
46591;PMS6003;32314;48.748;9.656;2023-07-31T14:48:10;2.25;2.00;2.00
46591;PMS6003;32314;48.748;9.656;2023-07-31T14:50:56;3.00;3.00;2.00
46591;PMS6003;32314;48.748;9.656;2023-07-31T14:53:42;2.33;2.33;2.00
46591;PMS6003;32314;48.748;9.656;2023-07-31T14:56:28;3.00;3.00;3.00
46591;PMS6003;32314;48.748;9.656;2023-07-31T14:59:14;4.00;4.00;3.33
46591;PMS6003;32314;48.748;9.656;2023-07-31T15:02:00;2.00;2.00;2.00
46591;PMS6003;32314;48.748;9.656;2023-07-31T15:04:46;6.33;4.67;3.67
46591;PMS6003;32314;48.748;9.656;2023-07-31T15:07:33;4.00;2.33;2.00
46591;PMS6003;32314;48.748;9.656;2023-07-31T15:10:19;3.67;3.67;3.00
46591;PMS6003;32314;48.748;9.656;2023-07-31T15:13:05;4.00;4.00;3.67
46591;PMS6003;32314;48.748;9.656;2023-07-31T15:15:50;4.67;4.00;3.00
46591;PMS6003;32314;48.748;9.656;2023-07-31T15:18:36;3.33;3.33;2.67
46591;PMS6003;32314;48.748;9.656;2023-07-31T15:21:22;7.00;4.00;3.67
46591;PMS6003;32314;48.748;9.656;2023-07-31T15:24:08;2.67;2.67;2.00
46591;PMS6003;32314;48.748;9.656;2023-07-31T15:26:54;1.67;1.67;1.67
46591;PMS6003;32314;48.748;9.656;2023-07-31T15:29:40;3.00;3.00;2.33
46591;PMS6003;32314;48.748;9.656;2023-07-31T15:32:26;1.33;1.33;1.00
46591;PMS6003;32314;48.748;9.656;2023-07-31T15:35:12;4.67;3.67;3.00
46591;PMS6003;32314;48.748;9.656;2023-07-31T15:37:58;4.00;4.00;4.00
46591;PMS6003;32314;48.748;9.656;2023-07-31T15:40:44;4.00;4.00;3.67
46591;PMS6003;32314;48.748;9.656;2023-07-31T15:43:30;4.67;4.67;4.00
46591;PMS6003;32314;48.748;9.656;2023-07-31T15:46:16;3.00;3.00;2.00
46591;PMS6003;32314;48.748;9.656;2023-07-31T15:49:02;4.00;4.00;4.00
46591;PMS6003;32314;48.748;9.656;2023-07-31T15:51:48;4.00;4.00;3.33
46591;PMS6003;32314;48.748;9.656;2023-07-31T15:54:34;3.00;3.00;2.00
46591;PMS6003;32314;48.748;9.656;2023-07-31T15:57:20;6.00;4.33;4.00
46591;PMS6003;32314;48.748;9.656;2023-07-31T16:00:06;4.00;2.67;2.00
46591;PMS6003;32314;48.748;9.656;2023-07-31T16:02:53;5.00;5.00;4.00
46591;PMS6003;32314;48.748;9.656;2023-07-31T16:05:39;5.00;3.67;3.00
46591;PMS6003;32314;48.748;9.656;2023-07-31T16:08:26;4.67;4.67;4.00
46591;PMS6003;32314;48.748;9.656;2023-07-31T16:11:12;8.00;6.00;6.00
46591;PMS6003;32314;48.748;9.656;2023-07-31T16:13:57;6.00;6.00;5.67
46591;PMS6003;32314;48.748;9.656;2023-07-31T16:16:44;3.00;3.00;2.33
46591;PMS6003;32314;48.748;9.656;2023-07-31T16:19:37;5.67;5.67;4.00
46591;PMS6003;32314;48.748;9.656;2023-07-31T16:22:31;2.67;2.67;2.00
46591;PMS6003;32314;48.748;9.656;2023-07-31T16:25:20;14.75;14.75;10.25
46591;PMS6003;32314;48.748;9.656;2023-07-31T16:28:10;17.75;16.00;13.00
46591;PMS6003;32314;48.748;9.656;2023-07-31T16:31:03;10.33;8.00;5.33
46591;PMS6003;32314;48.748;9.656;2023-07-31T16:33:59;2.00;2.00;1.75
46591;PMS6003;32314;48.748;9.656;2023-07-31T16:36:52;3.33;3.33;3.00
46591;PMS6003;32314;48.748;9.656;2023-07-31T16:40:00;4.33;2.33;2.33
46591;PMS6003;32314;48.748;9.656;2023-07-31T16:42:58;2.67;2.67;2.33
46591;PMS6003;32314;48.748;9.656;2023-07-31T16:45:59;4.00;4.00;3.00
46591;PMS6003;32314;48.748;9.656;2023-07-31T16:48:45;4.00;4.00;3.67
46591;PMS6003;32314;48.748;9.656;2023-07-31T16:51:31;4.67;2.67;2.67
46591;PMS6003;32314;48.748;9.656;2023-07-31T16:54:17;4.67;4.67;4.00
46591;PMS6003;32314;48.748;9.656;2023-07-31T16:57:03;4.00;2.33;2.33
46591;PMS6003;32314;48.748;9.656;2023-07-31T17:00:27;4.33;4.33;4.33
46591;PMS6003;32314;48.748;9.656;2023-07-31T17:03:18;4.00;4.00;3.00
46591;PMS6003;32314;48.748;9.656;2023-07-31T17:06:10;4.00;2.00;2.00
46591;PMS6003;32314;48.748;9.656;2023-07-31T17:08:59;6.33;6.33;5.33
46591;PMS6003;32314;48.748;9.656;2023-07-31T17:11:57;3.00;3.00;2.33
46591;PMS6003;32314;48.748;9.656;2023-07-31T17:14:47;4.00;3.67;3.00
46591;PMS6003;32314;48.748;9.656;2023-07-31T17:17:38;5.00;3.33;3.00
46591;PMS6003;32314;48.748;9.656;2023-07-31T17:20:24;3.67;3.67;3.00
46591;PMS6003;32314;48.748;9.656;2023-07-31T17:23:10;2.67;2.67;2.33
46591;PMS6003;32314;48.748;9.656;2023-07-31T17:25:56;4.67;4.67;4.00
46591;PMS6003;32314;48.748;9.656;2023-07-31T17:28:49;3.67;3.33;2.00
46591;PMS6003;32314;48.748;9.656;2023-07-31T17:31:40;4.00;3.67;3.33
46591;PMS6003;32314;48.748;9.656;2023-07-31T17:34:32;3.67;3.67;3.00